Time;durP1;ratioP1;P1;durP2;ratioP2;P2;SDS_P1;SDS_P2;PMS_P1;PMS_P2;Temp;Humidity;BMP_temperature;BMP_pressure;BME280_temperature;BME280_humidity;BME280_pressure;Samples;Min_cycle;Max_cycle;Signal;HPM_P1;HPM_P2
2021/11/24 00:01:50;;;;;;;65.78;32.72;;;;;;;;;;5033985;28;20286;-70
2021/11/24 00:04:17;;;;;;;68.32;31.88;;;;;;;;;;5033954;28;20285;-70
2021/11/24 00:06:44;;;;;;;62.25;32.97;;;;;;;;;;5033584;28;20312;-70
2021/11/24 00:09:13;;;;;;;57.28;31.55;;;;;;;;;;5033820;28;20199;-70
2021/11/24 00:11:40;;;;;;;64.45;31.77;;;;;;;;;;5033464;28;20315;-69
2021/11/24 00:14:07;;;;;;;56.75;29.40;;;;;;;;;;5033795;28;20225;-70
2021/11/24 00:16:35;;;;;;;59.83;29.90;;;;;;;;;;5034558;28;20287;-70
2021/11/24 00:19:02;;;;;;;53.35;30.27;;;;;;;;;;5033695;28;20193;-70
2021/11/24 00:21:29;;;;;;;63.15;31.52;;;;;;;;;;5033426;28;20292;-70
2021/11/24 00:23:56;;;;;;;59.40;29.23;;;;;;;;;;5033723;28;20280;-70
2021/11/24 00:26:25;;;;;;;65.35;32.30;;;;;;;;;;5033619;28;20221;-69
2021/11/24 00:28:52;;;;;;;70.20;31.83;;;;;;;;;;5033656;28;20288;-70
2021/11/24 00:31:19;;;;;;;76.28;35.70;;;;;;;;;;5033662;28;20233;-70
2021/11/24 00:33:47;;;;;;;79.53;33.13;;;;;;;;;;5033820;28;20286;-70
2021/11/24 00:36:14;;;;;;;76.28;33.00;;;;;;;;;;5033565;28;20644;-70
2021/11/24 00:38:41;;;;;;;65.55;30.23;;;;;;;;;;5033700;28;20292;-69
2021/11/24 00:41:08;;;;;;;66.38;32.28;;;;;;;;;;5033559;28;20707;-71
2021/11/24 00:43:37;;;;;;;83.85;34.85;;;;;;;;;;5033369;28;20289;-70
2021/11/24 00:46:04;;;;;;;67.95;33.05;;;;;;;;;;5033355;28;20291;-70
2021/11/24 00:48:31;;;;;;;70.95;30.80;;;;;;;;;;5033153;28;20198;-69
2021/11/24 00:50:59;;;;;;;73.32;29.67;;;;;;;;;;5033466;28;20278;-70
2021/11/24 00:53:26;;;;;;;71.85;30.50;;;;;;;;;;5033034;28;20288;-70
2021/11/24 00:55:53;;;;;;;65.10;31.73;;;;;;;;;;5033099;28;20744;-69
2021/11/24 00:58:20;;;;;;;76.85;33.50;;;;;;;;;;5033787;28;20709;-70
2021/11/24 01:00:49;;;;;;;56.20;30.08;;;;;;;;;;5033063;28;20293;-70
2021/11/24 01:03:16;;;;;;;59.33;30.10;;;;;;;;;;5033032;28;20237;-70
2021/11/24 01:05:46;;;;;;;59.67;28.80;;;;;;;;;;5033335;28;20199;-70
2021/11/24 01:08:13;;;;;;;67.07;29.30;;;;;;;;;;5033260;28;20223;-69
2021/11/24 01:10:41;;;;;;;63.63;31.02;;;;;;;;;;5033243;28;20194;-70
2021/11/24 01:13:08;;;;;;;68.95;30.73;;;;;;;;;;5033496;28;20261;-69
2021/11/24 01:15:35;;;;;;;76.65;30.30;;;;;;;;;;5032903;28;20291;-70
2021/11/24 01:18:04;;;;;;;71.47;29.80;;;;;;;;;;5036004;28;20297;-70
2021/11/24 01:20:31;;;;;;;63.67;30.58;;;;;;;;;;5037407;28;20209;-70
2021/11/24 01:22:59;;;;;;;92.45;33.80;;;;;;;;;;5036687;28;20240;-70
2021/11/24 01:25:26;;;;;;;98.25;31.65;;;;;;;;;;5037125;28;20596;-70
2021/11/24 01:27:53;;;;;;;88.47;30.13;;;;;;;;;;5037159;28;20218;-69
2021/11/24 01:30:21;;;;;;;68.53;30.77;;;;;;;;;;5036614;28;20289;-69
2021/11/24 01:32:48;;;;;;;87.35;33.00;;;;;;;;;;5036915;28;20292;-70
2021/11/24 01:35:17;;;;;;;74.72;32.42;;;;;;;;;;5036481;28;20233;-71
2021/11/24 01:37:44;;;;;;;95.35;29.88;;;;;;;;;;5036716;28;20211;-69
2021/11/24 01:40:12;;;;;;;92.95;32.85;;;;;;;;;;5036723;28;20284;-69
2021/11/24 01:42:40;;;;;;;107.95;35.00;;;;;;;;;;5036433;28;20228;-69
2021/11/24 01:45:08;;;;;;;100.30;31.80;;;;;;;;;;5036612;28;20296;-69
2021/11/24 01:47:35;;;;;;;86.82;31.67;;;;;;;;;;5036259;28;20701;-69
2021/11/24 01:50:03;;;;;;;127.70;34.53;;;;;;;;;;5036501;28;20586;-70
2021/11/24 01:52:32;;;;;;;137.82;34.03;;;;;;;;;;5036468;28;20289;-70
2021/11/24 01:54:59;;;;;;;128.00;34.33;;;;;;;;;;5036071;28;20660;-69
2021/11/24 01:57:27;;;;;;;166.55;33.53;;;;;;;;;;5036440;28;20288;-70
2021/11/24 01:59:56;;;;;;;119.55;32.63;;;;;;;;;;5036306;28;20200;-70
2021/11/24 02:02:23;;;;;;;133.30;32.13;;;;;;;;;;5035973;28;20235;-69
2021/11/24 02:04:50;;;;;;;69.90;30.05;;;;;;;;;;5036171;28;20283;-69
2021/11/24 02:07:18;;;;;;;117.20;31.23;;;;;;;;;;5035829;28;20303;-70
2021/11/24 02:09:46;;;;;;;86.20;31.77;;;;;;;;;;5036184;28;20292;-69
2021/11/24 02:12:14;;;;;;;165.00;33.63;;;;;;;;;;5035606;28;20321;-69
2021/11/24 02:14:42;;;;;;;139.98;29.77;;;;;;;;;;5035771;28;20292;-69
2021/11/24 02:17:10;;;;;;;156.95;33.25;;;;;;;;;;5035719;28;20723;-70
2021/11/24 02:19:37;;;;;;;187.40;33.45;;;;;;;;;;5036479;28;20542;-69
2021/11/24 02:22:06;;;;;;;137.25;34.03;;;;;;;;;;5036502;28;20296;-69
2021/11/24 02:24:34;;;;;;;135.98;31.30;;;;;;;;;;5035902;28;20197;-70
2021/11/24 02:27:02;;;;;;;130.45;33.97;;;;;;;;;;5035457;28;20311;-70
2021/11/24 02:29:30;;;;;;;79.78;32.17;;;;;;;;;;5035655;28;20233;-70
2021/11/24 02:31:58;;;;;;;93.32;33.35;;;;;;;;;;5035439;28;20288;-69
2021/11/24 02:34:25;;;;;;;90.95;29.10;;;;;;;;;;5035784;28;20229;-69
2021/11/24 02:36:52;;;;;;;82.38;32.60;;;;;;;;;;5035821;28;20288;-69
2021/11/24 02:39:21;;;;;;;81.95;31.25;;;;;;;;;;5035492;28;20232;-69
2021/11/24 02:41:49;;;;;;;84.18;30.58;;;;;;;;;;5035702;28;20280;-69
2021/11/24 02:44:17;;;;;;;82.57;31.80;;;;;;;;;;5035632;28;20750;-69
2021/11/24 02:46:45;;;;;;;73.97;30.25;;;;;;;;;;5035385;28;20236;-69
2021/11/24 02:49:12;;;;;;;73.53;30.02;;;;;;;;;;5035665;28;20281;-69
2021/11/24 02:51:40;;;;;;;77.53;31.85;;;;;;;;;;5035366;28;20655;-69
2021/11/24 02:54:07;;;;;;;73.85;29.35;;;;;;;;;;5035457;28;20289;-69
2021/11/24 02:56:35;;;;;;;72.57;32.80;;;;;;;;;;5035084;28;20228;-70
2021/11/24 02:59:03;;;;;;;63.17;29.20;;;;;;;;;;5035644;28;20201;-69
2021/11/24 03:01:31;;;;;;;74.32;29.38;;;;;;;;;;5034794;28;20206;-69
2021/11/24 03:03:58;;;;;;;71.45;29.77;;;;;;;;;;5034792;28;20283;-69
2021/11/24 03:06:25;;;;;;;73.63;30.50;;;;;;;;;;5035096;28;20304;-69
2021/11/24 03:08:53;;;;;;;62.92;29.13;;;;;;;;;;5034649;28;20289;-70
2021/11/24 03:11:20;;;;;;;79.10;31.63;;;;;;;;;;5035074;28;20312;-70
2021/11/24 03:13:48;;;;;;;77.15;32.78;;;;;;;;;;5035208;28;20291;-69
2021/11/24 03:16:16;;;;;;;78.20;29.90;;;;;;;;;;5034595;28;20196;-70
2021/11/24 03:18:43;;;;;;;82.80;34.60;;;;;;;;;;5034883;28;20288;-70
2021/11/24 03:21:10;;;;;;;72.93;33.33;;;;;;;;;;5034787;28;20589;-70
2021/11/24 03:23:37;;;;;;;111.20;32.42;;;;;;;;;;5034688;28;20229;-70
2021/11/24 03:26:04;;;;;;;82.18;30.63;;;;;;;;;;5035125;28;20300;-70
2021/11/24 03:28:32;;;;;;;87.13;32.17;;;;;;;;;;5034259;28;20224;-70
2021/11/24 03:31:00;;;;;;;85.25;32.45;;;;;;;;;;5034868;28;20283;-70
2021/11/24 03:33:27;;;;;;;69.32;33.55;;;;;;;;;;5035122;28;20292;-70
2021/11/24 03:35:55;;;;;;;83.05;34.08;;;;;;;;;;5034200;28;20205;-69
2021/11/24 03:38:22;;;;;;;84.57;33.00;;;;;;;;;;5034742;28;20288;-69
2021/11/24 03:40:49;;;;;;;78.88;31.20;;;;;;;;;;5034267;28;20631;-69
2021/11/24 03:43:16;;;;;;;73.70;31.88;;;;;;;;;;5034683;28;20291;-69
2021/11/24 03:45:43;;;;;;;73.60;31.92;;;;;;;;;;5034380;28;20233;-69
2021/11/24 03:48:12;;;;;;;85.68;31.55;;;;;;;;;;5033919;28;20222;-69
2021/11/24 03:50:40;;;;;;;69.20;31.75;;;;;;;;;;5034269;28;20229;-69
2021/11/24 03:53:07;;;;;;;71.57;30.85;;;;;;;;;;5034644;28;20283;-69
2021/11/24 03:55:34;;;;;;;85.60;32.55;;;;;;;;;;5034220;28;20197;-70
2021/11/24 03:58:02;;;;;;;83.15;31.70;;;;;;;;;;5034678;28;20201;-69
2021/11/24 04:00:30;;;;;;;64.57;29.75;;;;;;;;;;5034264;28;20204;-70
2021/11/24 04:02:58;;;;;;;70.35;30.92;;;;;;;;;;5034137;28;20286;-69
2021/11/24 04:05:26;;;;;;;87.78;32.05;;;;;;;;;;5033683;28;20626;-70
2021/11/24 04:07:54;;;;;;;155.57;35.67;;;;;;;;;;5033478;28;20646;-70
2021/11/24 04:10:21;;;;;;;109.60;31.33;;;;;;;;;;5033789;28;20619;-69
2021/11/24 04:12:49;;;;;;;86.93;31.95;;;;;;;;;;5033758;28;20266;-69
2021/11/24 04:15:17;;;;;;;97.93;32.45;;;;;;;;;;5034081;28;20663;-69
2021/11/24 04:17:45;;;;;;;67.10;28.00;;;;;;;;;;5033528;28;20255;-69
2021/11/24 04:20:14;;;;;;;92.25;30.40;;;;;;;;;;5033221;28;20294;-69
2021/11/24 04:22:42;;;;;;;85.90;32.97;;;;;;;;;;5033642;28;20229;-70
2021/11/24 04:25:10;;;;;;;69.97;31.10;;;;;;;;;;5033262;28;20238;-70
2021/11/24 04:27:37;;;;;;;100.28;32.72;;;;;;;;;;5032958;28;20217;-69
2021/11/24 04:30:06;;;;;;;101.47;34.05;;;;;;;;;;5032907;28;20290;-70
2021/11/24 04:32:33;;;;;;;127.68;33.58;;;;;;;;;;5033240;28;20285;-69
2021/11/24 04:35:00;;;;;;;126.60;33.63;;;;;;;;;;5032870;28;20198;-70
2021/11/24 04:37:27;;;;;;;91.63;33.47;;;;;;;;;;5033286;28;20289;-70
2021/11/24 04:39:56;;;;;;;161.20;34.95;;;;;;;;;;5033220;28;20731;-69
2021/11/24 04:42:23;;;;;;;132.50;35.13;;;;;;;;;;5032869;28;20645;-69
2021/11/24 04:44:51;;;;;;;260.95;41.35;;;;;;;;;;5032901;28;20655;-69
2021/11/24 04:47:18;;;;;;;167.52;33.05;;;;;;;;;;5033107;28;20197;-69
2021/11/24 04:49:45;;;;;;;366.52;43.22;;;;;;;;;;5033048;28;20233;-69
2021/11/24 04:52:12;;;;;;;287.92;39.95;;;;;;;;;;5034035;28;20285;-68
2021/11/24 04:54:40;;;;;;;117.20;32.05;;;;;;;;;;5037218;28;20264;-70
2021/11/24 04:57:10;;;;;;;141.18;33.92;;;;;;;;;;5036981;28;20291;-70
2021/11/24 04:59:37;;;;;;;167.25;33.13;;;;;;;;;;5036859;28;20209;-69
2021/11/24 05:02:05;;;;;;;166.82;33.20;;;;;;;;;;5036895;28;20232;-69
2021/11/24 05:04:32;;;;;;;113.25;27.52;;;;;;;;;;5036510;28;20707;-69
2021/11/24 05:07:00;;;;;;;76.15;24.80;;;;;;;;;;5036862;28;20297;-70
2021/11/24 05:09:27;;;;;;;145.95;29.05;;;;;;;;;;5036993;28;20226;-69
2021/11/24 05:11:54;;;;;;;126.15;29.63;;;;;;;;;;5036688;28;20264;-70
2021/11/24 05:14:26;;;;;;;65.25;27.02;;;;;;;;;;5036591;28;20201;-69
2021/11/24 05:16:54;;;;;;;79.05;25.45;;;;;;;;;;5036502;28;20654;-70
2021/11/24 05:19:23;;;;;;;109.13;29.70;;;;;;;;;;5036585;28;20210;-69
2021/11/24 05:21:51;;;;;;;152.93;31.67;;;;;;;;;;5036720;28;20233;-70
2021/11/24 05:24:19;;;;;;;68.00;27.10;;;;;;;;;;5035701;28;20203;-70
2021/11/24 05:26:46;;;;;;;53.60;26.88;;;;;;;;;;5036484;28;20299;-69
2021/11/24 05:29:14;;;;;;;69.75;27.60;;;;;;;;;;5036551;28;20309;-70
2021/11/24 05:31:43;;;;;;;87.28;28.17;;;;;;;;;;5036106;28;20290;-69
2021/11/24 05:34:10;;;;;;;147.45;32.47;;;;;;;;;;5036371;28;20242;-70
2021/11/24 05:36:39;;;;;;;69.78;26.77;;;;;;;;;;5035940;28;20288;-69
2021/11/24 05:39:08;;;;;;;67.07;27.67;;;;;;;;;;5035993;28;20210;-70
2021/11/24 05:41:39;;;;;;;65.88;27.92;;;;;;;;;;5035829;28;20198;-69
2021/11/24 05:44:16;;;;;;;68.22;26.70;;;;;;;;;;5036214;28;20286;-69
2021/11/24 05:46:46;;;;;;;71.80;28.67;;;;;;;;;;5036383;28;20233;-69
2021/11/24 05:49:14;;;;;;;78.03;27.45;;;;;;;;;;5035969;28;20216;-70
2021/11/24 05:51:41;;;;;;;79.70;27.15;;;;;;;;;;5036221;28;20272;-70
2021/11/24 05:54:08;;;;;;;62.70;26.73;;;;;;;;;;5036323;28;20285;-69
2021/11/24 05:56:38;;;;;;;76.88;25.85;;;;;;;;;;5035858;28;20386;-68
2021/11/24 05:59:05;;;;;;;80.43;27.20;;;;;;;;;;5035633;28;20215;-68
2021/11/24 06:01:33;;;;;;;249.75;36.75;;;;;;;;;;5035682;28;20288;-68
2021/11/24 06:04:01;;;;;;;88.88;30.27;;;;;;;;;;5035488;28;20282;-69
2021/11/24 06:06:29;;;;;;;135.68;33.35;;;;;;;;;;5035843;28;20199;-69
2021/11/24 06:08:56;;;;;;;79.60;27.42;;;;;;;;;;5035496;28;20221;-68
2021/11/24 06:11:23;;;;;;;63.20;25.25;;;;;;;;;;5035632;28;20272;-69
2021/11/24 06:13:51;;;;;;;78.80;26.75;;;;;;;;;;5035447;28;20286;-70
2021/11/24 06:16:18;;;;;;;57.40;25.52;;;;;;;;;;5036240;28;20601;-69
2021/11/24 06:18:45;;;;;;;63.88;27.08;;;;;;;;;;5035331;28;20739;-69
2021/11/24 06:21:14;;;;;;;68.53;27.38;;;;;;;;;;5036136;28;20264;-70
2021/11/24 06:23:41;;;;;;;122.20;28.50;;;;;;;;;;5035588;28;20195;-69
2021/11/24 06:26:09;;;;;;;74.70;26.95;;;;;;;;;;5035576;28;20368;-70
2021/11/24 06:28:37;;;;;;;61.75;25.58;;;;;;;;;;5035137;28;20694;-70
2021/11/24 06:31:05;;;;;;;93.70;27.95;;;;;;;;;;5035781;28;20301;-80
2021/11/24 06:33:32;;;;;;;65.82;25.48;;;;;;;;;;5035083;28;20232;-72
2021/11/24 06:36:00;;;;;;;69.63;25.38;;;;;;;;;;5035146;28;20271;-69
2021/11/24 06:38:28;;;;;;;52.20;24.25;;;;;;;;;;5035663;28;20234;-69
2021/11/24 06:40:55;;;;;;;69.15;26.48;;;;;;;;;;5035308;28;20282;-70
2021/11/24 06:43:23;;;;;;;67.75;30.40;;;;;;;;;;5035385;28;20292;-70
2021/11/24 06:45:50;;;;;;;74.07;27.40;;;;;;;;;;5035584;28;20314;-70
2021/11/24 06:48:17;;;;;;;58.30;25.08;;;;;;;;;;5035277;28;20226;-69
2021/11/24 06:50:44;;;;;;;45.05;23.23;;;;;;;;;;5035171;28;20628;-69
2021/11/24 06:53:12;;;;;;;80.00;26.58;;;;;;;;;;5034614;28;20244;-69
2021/11/24 06:55:40;;;;;;;66.97;27.23;;;;;;;;;;5034817;28;20237;-69
2021/11/24 06:58:07;;;;;;;65.97;24.50;;;;;;;;;;5034754;28;20288;-69
2021/11/24 07:00:35;;;;;;;64.60;26.77;;;;;;;;;;5034859;28;20324;-69
2021/11/24 07:03:02;;;;;;;67.72;22.98;;;;;;;;;;5035417;28;20229;-69
2021/11/24 07:05:29;;;;;;;48.60;23.77;;;;;;;;;;5034437;28;20288;-69
2021/11/24 07:07:57;;;;;;;48.47;23.65;;;;;;;;;;5034957;28;20282;-69
2021/11/24 07:10:24;;;;;;;82.07;28.02;;;;;;;;;;5034751;28;20590;-69
2021/11/24 07:12:53;;;;;;;68.70;25.63;;;;;;;;;;5034541;28;20715;-69
2021/11/24 07:15:20;;;;;;;62.65;27.35;;;;;;;;;;5033623;28;20202;-70
2021/11/24 07:17:47;;;;;;;68.60;26.48;;;;;;;;;;5034445;28;20202;-70
2021/11/24 07:20:15;;;;;;;56.35;25.40;;;;;;;;;;5034516;28;20209;-70
2021/11/24 07:22:42;;;;;;;102.00;27.33;;;;;;;;;;5034063;28;20229;-69
2021/11/24 07:25:10;;;;;;;57.35;24.17;;;;;;;;;;5034274;28;20197;-69
2021/11/24 07:27:38;;;;;;;76.25;26.63;;;;;;;;;;5033878;28;20193;-69
2021/11/24 07:30:07;;;;;;;78.32;26.73;;;;;;;;;;5034801;28;20312;-69
2021/11/24 07:32:35;;;;;;;71.82;25.58;;;;;;;;;;5033769;28;20277;-69
2021/11/24 07:35:02;;;;;;;98.60;26.58;;;;;;;;;;5033853;28;20287;-69
2021/11/24 07:37:29;;;;;;;63.08;26.00;;;;;;;;;;5033774;28;20204;-69
2021/11/24 07:39:57;;;;;;;56.83;23.70;;;;;;;;;;5033944;28;20652;-69
2021/11/24 07:42:24;;;;;;;52.92;24.88;;;;;;;;;;5034221;28;20284;-69
2021/11/24 07:44:51;;;;;;;69.78;24.90;;;;;;;;;;5034158;28;20198;-69
2021/11/24 07:47:20;;;;;;;66.60;25.35;;;;;;;;;;5033906;28;20193;-69
2021/11/24 07:49:47;;;;;;;61.05;24.23;;;;;;;;;;5033525;28;20729;-69
2021/11/24 07:52:15;;;;;;;49.53;25.00;;;;;;;;;;5033669;28;20239;-69
2021/11/24 07:54:42;;;;;;;63.38;26.48;;;;;;;;;;5033987;28;20290;-69
2021/11/24 07:57:09;;;;;;;45.58;22.27;;;;;;;;;;5033814;28;20288;-69
2021/11/24 07:59:37;;;;;;;39.10;21.98;;;;;;;;;;5033763;28;20720;-69
2021/11/24 08:02:05;;;;;;;42.78;21.65;;;;;;;;;;5034294;28;20202;-69
2021/11/24 08:04:34;;;;;;;38.17;19.92;;;;;;;;;;5033586;28;20363;-69
2021/11/24 08:07:03;;;;;;;41.13;23.08;;;;;;;;;;5034071;28;20572;-70
2021/11/24 08:09:30;;;;;;;47.38;22.90;;;;;;;;;;5033573;28;20305;-69
2021/11/24 08:11:59;;;;;;;44.40;22.08;;;;;;;;;;5033854;28;20320;-70
2021/11/24 08:14:26;;;;;;;39.75;21.88;;;;;;;;;;5033579;28;20271;-69
2021/11/24 08:16:53;;;;;;;34.40;19.55;;;;;;;;;;5033433;28;20288;-69
2021/11/24 08:19:21;;;;;;;39.83;22.13;;;;;;;;;;5033330;28;20238;-70
2021/11/24 08:21:49;;;;;;;44.88;22.35;;;;;;;;;;5033362;28;20233;-70
2021/11/24 08:24:16;;;;;;;40.92;21.90;;;;;;;;;;5033720;28;20203;-69
2021/11/24 08:26:44;;;;;;;39.75;20.30;;;;;;;;;;5033406;28;20305;-70
2021/11/24 08:29:12;;;;;;;51.15;23.73;;;;;;;;;;5033095;28;20308;-69
2021/11/24 08:31:40;;;;;;;55.15;25.95;;;;;;;;;;5032893;28;20198;-70
2021/11/24 08:34:08;;;;;;;58.28;26.40;;;;;;;;;;5033200;28;20198;-70
2021/11/24 08:36:35;;;;;;;61.03;26.17;;;;;;;;;;5032823;28;20208;-70
2021/11/24 08:39:05;;;;;;;58.90;27.58;;;;;;;;;;5032779;28;20742;-69
2021/11/24 08:41:32;;;;;;;63.78;28.85;;;;;;;;;;5033051;28;20622;-69
2021/11/24 08:43:59;;;;;;;61.42;28.33;;;;;;;;;;5032678;28;20233;-71
2021/11/24 08:46:26;;;;;;;77.90;31.63;;;;;;;;;;5032770;28;20233;-70
2021/11/24 08:48:54;;;;;;;84.28;33.58;;;;;;;;;;5032719;28;20307;-70
2021/11/24 08:51:21;;;;;;;92.65;32.25;;;;;;;;;;5033197;28;20228;-69
2021/11/24 08:53:49;;;;;;;90.70;33.47;;;;;;;;;;5032676;28;20674;-70
2021/11/24 08:56:17;;;;;;;109.07;36.03;;;;;;;;;;5033599;28;20256;-69
2021/11/24 08:58:45;;;;;;;101.47;37.50;;;;;;;;;;5033026;28;20253;-70
2021/11/24 09:01:12;;;;;;;107.43;36.38;;;;;;;;;;5033331;28;20230;-70
2021/11/24 09:03:39;;;;;;;105.25;36.03;;;;;;;;;;5032682;28;20259;-71
2021/11/24 09:06:06;;;;;;;112.40;41.67;;;;;;;;;;5032975;28;20237;-69
2021/11/24 09:08:34;;;;;;;108.53;37.63;;;;;;;;;;5032595;28;20205;-70
2021/11/24 09:11:01;;;;;;;104.10;39.08;;;;;;;;;;5032680;28;20278;-69
2021/11/24 09:13:30;;;;;;;102.68;35.58;;;;;;;;;;5033199;28;20203;-70
2021/11/24 09:15:57;;;;;;;105.80;36.97;;;;;;;;;;5032683;28;20692;-70
2021/11/24 09:18:24;;;;;;;92.78;35.25;;;;;;;;;;5032903;28;20245;-70
2021/11/24 09:20:52;;;;;;;77.97;34.50;;;;;;;;;;5033096;28;20289;-70
2021/11/24 09:23:21;;;;;;;76.60;31.05;;;;;;;;;;5032841;28;20606;-70
2021/11/24 09:25:51;;;;;;;78.57;32.67;;;;;;;;;;5031904;28;20191;-70
2021/11/24 09:28:19;;;;;;;83.82;33.80;;;;;;;;;;5032975;28;20199;-70
2021/11/24 09:30:48;;;;;;;78.80;31.92;;;;;;;;;;5033113;28;20572;-70
2021/11/24 09:33:15;;;;;;;83.57;35.00;;;;;;;;;;5032466;28;20668;-70
2021/11/24 09:35:43;;;;;;;74.70;33.30;;;;;;;;;;5032743;28;20254;-70
2021/11/24 09:38:10;;;;;;;62.83;29.58;;;;;;;;;;5033683;28;20282;-70
2021/11/24 09:40:37;;;;;;;79.00;34.42;;;;;;;;;;5036182;28;20203;-70
2021/11/24 09:43:06;;;;;;;56.88;28.98;;;;;;;;;;5036485;28;20237;-70
2021/11/24 09:45:37;;;;;;;42.00;23.43;;;;;;;;;;5036297;28;20204;-70
2021/11/24 09:48:11;;;;;;;42.17;25.95;;;;;;;;;;5036804;28;20435;-70
2021/11/24 09:50:46;;;;;;;40.75;21.77;;;;;;;;;;5036423;28;20349;-70
2021/11/24 09:53:15;;;;;;;33.42;20.48;;;;;;;;;;5036679;28;20186;-71
2021/11/24 09:55:42;;;;;;;43.10;25.02;;;;;;;;;;5036546;28;20616;-70
2021/11/24 09:58:12;;;;;;;47.90;25.70;;;;;;;;;;5036163;28;20284;-70
2021/11/24 10:00:40;;;;;;;39.25;22.75;;;;;;;;;;5035704;28;20229;-70
2021/11/24 10:03:10;;;;;;;37.35;20.20;;;;;;;;;;5036083;28;20290;-70
2021/11/24 10:05:38;;;;;;;33.17;19.80;;;;;;;;;;5036434;28;20650;-70
2021/11/24 10:08:06;;;;;;;32.08;20.45;;;;;;;;;;5036294;28;20199;-71
2021/11/24 10:10:34;;;;;;;32.72;21.20;;;;;;;;;;5036157;28;20624;-70
2021/11/24 10:13:01;;;;;;;31.65;20.77;;;;;;;;;;5035403;28;20315;-70
2021/11/24 10:15:38;;;;;;;36.30;23.65;;;;;;;;;;5035939;28;20228;-70
2021/11/24 10:18:15;;;;;;;34.17;21.88;;;;;;;;;;5035584;28;20193;-71
2021/11/24 10:20:46;;;;;;;34.45;21.20;;;;;;;;;;5036016;28;20670;-70
2021/11/24 10:23:20;;;;;;;39.20;22.77;;;;;;;;;;5035694;28;20207;-70
2021/11/24 10:25:47;;;;;;;32.35;21.67;;;;;;;;;;5035207;28;20202;-70
2021/11/24 10:28:25;;;;;;;32.67;21.83;;;;;;;;;;5035222;28;20200;-70
2021/11/24 10:30:55;;;;;;;38.97;22.15;;;;;;;;;;5035165;28;20224;-70
2021/11/24 10:33:26;;;;;;;34.17;21.02;;;;;;;;;;5035417;28;20213;-71
2021/11/24 10:36:07;;;;;;;31.63;19.50;;;;;;;;;;5035199;28;20219;-70
2021/11/24 10:38:39;;;;;;;39.43;24.10;;;;;;;;;;5034745;28;20233;-70
2021/11/24 10:41:06;;;;;;;39.63;24.98;;;;;;;;;;5033817;28;20470;-70
2021/11/24 10:43:42;;;;;;;43.17;24.08;;;;;;;;;;5034389;28;20284;-70
2021/11/24 10:46:11;;;;;;;48.63;25.87;;;;;;;;;;5034721;28;20651;-70
2021/11/24 10:48:39;;;;;;;44.38;25.60;;;;;;;;;;5035085;28;20453;-72
2021/11/24 10:51:21;;;;;;;40.00;24.20;;;;;;;;;;5034701;28;20250;-70
2021/11/24 10:54:04;;;;;;;35.55;23.48;;;;;;;;;;5034636;28;20668;-71
2021/11/24 10:56:31;;;;;;;41.35;22.60;;;;;;;;;;5035050;28;20246;-71
2021/11/24 10:59:19;;;;;;;30.15;19.42;;;;;;;;;;5035559;28;20205;-71
2021/11/24 11:01:46;;;;;;;27.93;19.37;;;;;;;;;;5034705;28;20279;-71
2021/11/24 11:04:14;;;;;;;24.37;16.20;;;;;;;;;;5034833;28;20525;-71
2021/11/24 11:06:42;;;;;;;23.38;16.48;;;;;;;;;;5034401;28;20525;-71
2021/11/24 11:09:09;;;;;;;21.30;15.20;;;;;;;;;;5035036;28;20282;-70
2021/11/24 11:11:38;;;;;;;23.40;15.27;;;;;;;;;;5033942;28;20282;-70
2021/11/24 11:14:19;;;;;;;25.30;16.38;;;;;;;;;;5034656;28;20584;-71
2021/11/24 11:16:47;;;;;;;23.13;15.53;;;;;;;;;;5035049;28;20219;-71
2021/11/24 11:19:34;;;;;;;24.27;14.57;;;;;;;;;;5034203;28;20944;-72
2021/11/24 11:22:03;;;;;;;20.07;13.20;;;;;;;;;;5034440;28;20278;-71
2021/11/24 11:24:30;;;;;;;25.43;15.37;;;;;;;;;;5034186;28;20478;-71
2021/11/24 11:26:58;;;;;;;21.23;14.00;;;;;;;;;;5034123;28;20456;-71
2021/11/24 11:29:26;;;;;;;18.33;13.55;;;;;;;;;;5034258;28;20533;-71
2021/11/24 11:31:53;;;;;;;19.30;13.25;;;;;;;;;;5034359;28;20218;-71
2021/11/24 11:34:20;;;;;;;22.27;13.50;;;;;;;;;;5034420;28;20609;-71
2021/11/24 11:36:53;;;;;;;23.65;13.05;;;;;;;;;;5034360;28;20482;-71
2021/11/24 11:39:22;;;;;;;18.48;13.40;;;;;;;;;;5034256;28;20274;-72
2021/11/24 11:41:50;;;;;;;21.42;14.20;;;;;;;;;;5033853;28;20226;-70
2021/11/24 11:44:19;;;;;;;23.90;14.95;;;;;;;;;;5034718;28;20191;-72
2021/11/24 11:46:48;;;;;;;24.92;16.35;;;;;;;;;;5033755;28;20206;-71
2021/11/24 11:49:17;;;;;;;22.20;14.93;;;;;;;;;;5033641;28;20196;-70
2021/11/24 11:51:45;;;;;;;20.08;15.20;;;;;;;;;;5033771;28;20482;-71
2021/11/24 11:54:14;;;;;;;22.97;14.90;;;;;;;;;;5033699;28;20226;-72
2021/11/24 11:56:44;;;;;;;27.83;17.27;;;;;;;;;;5033501;28;20843;-71
2021/11/24 11:59:17;;;;;;;27.13;16.83;;;;;;;;;;5034295;28;20807;-71
2021/11/24 12:01:55;;;;;;;23.20;16.60;;;;;;;;;;5033018;28;20246;-71
2021/11/24 12:04:22;;;;;;;22.60;15.50;;;;;;;;;;5034037;28;20214;-71
2021/11/24 12:07:02;;;;;;;27.13;16.50;;;;;;;;;;5033447;28;20446;-71
2021/11/24 12:09:30;;;;;;;27.85;17.67;;;;;;;;;;5034142;28;20430;-72
2021/11/24 12:12:18;;;;;;;30.13;17.08;;;;;;;;;;5033272;28;20238;-71
2021/11/24 12:14:51;;;;;;;25.43;14.97;;;;;;;;;;5030351;28;20199;-71
2021/11/24 12:17:32;;;;;;;26.13;16.70;;;;;;;;;;5034087;28;20454;-71
2021/11/24 12:19:59;;;;;;;27.67;16.77;;;;;;;;;;5033806;28;20194;-71
2021/11/24 12:22:42;;;;;;;23.00;15.88;;;;;;;;;;5033660;28;20790;-71
2021/11/24 12:25:09;;;;;;;24.83;16.15;;;;;;;;;;5033049;28;20290;-71
2021/11/24 12:27:51;;;;;;;23.60;14.15;;;;;;;;;;5033512;28;20203;-71
2021/11/24 12:30:47;;;;;;;26.58;15.55;;;;;;;;;;5032874;28;20310;-71
2021/11/24 12:33:16;;;;;;;22.70;13.82;;;;;;;;;;5032937;28;20198;-71
2021/11/24 12:35:48;;;;;;;25.80;16.80;;;;;;;;;;5032996;28;20216;-73
2021/11/24 12:38:15;;;;;;;24.13;16.93;;;;;;;;;;5033428;28;20274;-71
2021/11/24 12:40:49;;;;;;;29.30;18.02;;;;;;;;;;5033262;28;20457;-71
2021/11/24 12:43:18;;;;;;;25.10;15.90;;;;;;;;;;5033290;28;20230;-72
2021/11/24 12:48:53;;;;;;;28.02;16.80;;;;;;;;;;5131608;27;20518;-71
2021/11/24 12:51:23;;;;;;;24.03;15.73;;;;;;;;;;5110646;28;20220;-72
2021/11/24 12:53:52;;;;;;;24.00;16.75;;;;;;;;;;5111004;28;20435;-71
2021/11/24 12:56:19;;;;;;;29.43;18.20;;;;;;;;;;5110831;28;20242;-71
2021/11/24 12:58:46;;;;;;;24.30;17.23;;;;;;;;;;5110947;28;20446;-73
2021/11/24 13:01:24;;;;;;;23.63;15.70;;;;;;;;;;5110945;28;20232;-72
2021/11/24 13:03:57;;;;;;;26.75;16.25;;;;;;;;;;5110992;28;20427;-72
2021/11/24 13:06:25;;;;;;;28.13;16.88;;;;;;;;;;5110890;28;20589;-71
2021/11/24 13:09:10;;;;;;;31.80;18.55;;;;;;;;;;5110611;28;20315;-72
2021/11/24 13:11:43;;;;;;;31.13;19.97;;;;;;;;;;5110369;28;20201;-71
2021/11/24 13:14:10;;;;;;;31.67;18.40;;;;;;;;;;5110361;28;20455;-72
2021/11/24 13:16:38;;;;;;;27.60;17.08;;;;;;;;;;5110291;28;20480;-71
2021/11/24 13:19:06;;;;;;;27.77;17.00;;;;;;;;;;5110069;28;20287;-71
2021/11/24 13:21:33;;;;;;;28.63;17.65;;;;;;;;;;5110108;28;20442;-71
2021/11/24 13:24:02;;;;;;;30.23;19.77;;;;;;;;;;5109347;28;20223;-70
2021/11/24 13:26:29;;;;;;;26.83;18.15;;;;;;;;;;5110532;28;20248;-71
2021/11/24 13:28:57;;;;;;;34.42;18.45;;;;;;;;;;5110287;28;20247;-71
2021/11/24 13:31:24;;;;;;;36.63;19.70;;;;;;;;;;5110373;28;20220;-71
2021/11/24 13:33:52;;;;;;;31.40;18.77;;;;;;;;;;5110334;28;20430;-71
2021/11/24 13:36:23;;;;;;;33.78;18.05;;;;;;;;;;5110235;28;20283;-71
2021/11/24 13:38:52;;;;;;;28.23;18.30;;;;;;;;;;5110369;28;20238;-72
2021/11/24 13:41:20;;;;;;;31.55;20.20;;;;;;;;;;5109853;28;20485;-71
2021/11/24 13:43:49;;;;;;;33.97;20.10;;;;;;;;;;5109611;28;20283;-71
2021/11/24 13:46:19;;;;;;;35.35;19.98;;;;;;;;;;5110420;28;20293;-71
2021/11/24 13:48:46;;;;;;;32.90;18.70;;;;;;;;;;5109703;28;20225;-71
2021/11/24 13:51:17;;;;;;;34.15;21.13;;;;;;;;;;5109883;28;20536;-71
2021/11/24 13:53:46;;;;;;;34.80;21.15;;;;;;;;;;5110039;28;20611;-71
2021/11/24 13:56:15;;;;;;;32.55;20.60;;;;;;;;;;5109305;28;20287;-71
2021/11/24 13:58:43;;;;;;;33.28;20.35;;;;;;;;;;5104630;28;20236;-73
2021/11/24 14:01:13;;;;;;;29.60;19.35;;;;;;;;;;5096154;28;20289;-73
2021/11/24 14:03:41;;;;;;;30.10;18.40;;;;;;;;;;5096026;28;20200;-72
2021/11/24 14:06:08;;;;;;;33.80;20.60;;;;;;;;;;5095777;28;21007;-72
2021/11/24 14:08:39;;;;;;;38.78;20.00;;;;;;;;;;5095867;28;20572;-74
2021/11/24 14:11:26;;;;;;;38.67;22.50;;;;;;;;;;5095550;28;20284;-72
2021/11/24 14:14:08;;;;;;;42.10;22.45;;;;;;;;;;5096005;28;20189;-72
2021/11/24 14:16:37;;;;;;;42.23;20.27;;;;;;;;;;5095763;28;20187;-72
2021/11/24 14:19:16;;;;;;;35.30;21.25;;;;;;;;;;5095712;28;20818;-72
2021/11/24 14:21:53;;;;;;;40.85;22.67;;;;;;;;;;5095358;28;20286;-73
2021/11/24 14:24:22;;;;;;;34.00;21.58;;;;;;;;;;5095208;28;20197;-72
2021/11/24 14:26:55;;;;;;;35.35;20.42;;;;;;;;;;5095983;28;20193;-72
2021/11/24 14:29:23;;;;;;;31.40;20.60;;;;;;;;;;5095762;28;20227;-71